Flight Track Log - Related Links

Times and Time Zones

All times are in EDT time to prevent confusion due to time zone crossing. See the QXE570 flight status page for this flight to view local times or setup timezone preferences in your user account.

Time Position Orientation Groundspeed Altitude Reporting Facility
EDT Latitude Longitude Course Direction KTS MPH feet Rate Location/Type
Mon 11:47:24 AM 45.5919 -122.6106 294° West 129 148 700  Level Seattle Center
Mon 11:48:01 AM 45.6014 -122.6403 298° West 143 165 1,600 1,653 Climbing Seattle Center
Mon 11:49:02 AM 45.6261 -122.7067 335° Northwest 187 215 3,400 1,572 Climbing Seattle Center
Mon 11:50:26 AM 45.6972 -122.7539 357° North 243 280 5,400 1,521 Climbing Seattle Center
Mon 11:51:28 AM 45.7692 -122.7594 355° North 259 298 7,100 1,659 Climbing Seattle Center
Mon 11:52:29 AM 45.8444 -122.7697 356° North 268 308 8,800 1,820 Climbing Seattle Center
Mon 11:53:30 AM 45.9408 -122.7797 357° North 285 328 10,800 1,869 Climbing Seattle Center
Mon 11:54:31 AM 46.0244 -122.7853 360° North 295 339 12,600 1,525 Climbing Seattle Center
Mon 11:55:32 AM 46.1064 -122.7853 358° North 297 342 13,900 689 Climbing Seattle Center
Mon 11:56:33 AM 46.1961 -122.7894 360° North 330 380 14,000 49 Climbing Seattle Center
Mon 11:57:34 AM 46.2956 -122.7883 359° North 360 414 14,000  Level Seattle Center
Mon 11:58:35 AM 46.3983 -122.7919 359° North 370 426 14,000  Level Seattle Center
Mon 11:59:36 AM 46.5028 -122.7950 359° North 376 433 14,000  Level Seattle Center
Mon 12:00:37 PM 46.6089 -122.7972 359° North 381 438 14,000  Level Seattle Center
Mon 12:01:39 PM 46.7344 -122.8000 North 381 438 14,000 -439 Level Seattle Center
Mon 12:02:40 PM 46.8381 -122.7886 North 378 435 13,100 -1,180 Descending Seattle Center
Mon 12:03:41 PM 46.9389 -122.7692 11° North 370 426 11,600 -1,442 Descending Seattle Center
Mon 12:04:49 PM 47.0581 -122.7342 50° Northeast 354 407 10,000 -1,279 Descending Seattle Center
Mon 12:05:43 PM 47.1008 -122.6603 55° Northeast 318 366 9,000 -1,357 Descending Seattle Center
Mon 12:06:44 PM 47.1481 -122.5617 55° Northeast 297 342 7,400 -1,512 Descending Seattle Center
Mon 12:07:46 PM 47.1919 -122.4694 55° Northeast 283 326 5,900 -1,512 Descending Seattle Center
Mon 12:08:47 PM 47.2403 -122.3683 39° Northeast 259 298 4,300 -1,279 Descending Seattle Center
Mon 12:09:48 PM 47.2869 -122.3133 360° North 230 265 3,300 -984 Descending Seattle Center
Mon 12:10:49 PM 47.3406 -122.3128 North 191 220 2,300 -878 Descending Seattle Center
Mon 12:11:51 PM 47.3831 -122.3122 North 152 175 1,500 -732 Descending Seattle Center
Mon 12:12:52 PM 47.4167 -122.3117 North 125 144 800 -541 Descending Seattle Center
Mon 12:13:53 PM 47.4522 -122.3100 North 116 133 400 -393 Descending Seattle Center

Login

Don't have an account? Register now (free) for customized features, flight alerts, and more!